Time;durP1;ratioP1;P1;durP2;ratioP2;P2;SDS_P1;SDS_P2;PMS_P1;PMS_P2;Temp;Humidity;BMP_temperature;BMP_pressure;BME280_temperature;BME280_humidity;BME280_pressure;Samples;Min_cycle;Max_cycle;Signal;HPM_P1;HPM_P2
2024/01/26 00:02:10;;;;;;;1.73;1.43;;;;;;;-145.69;68.69;52309.72;5135013;27;20201;-80
2024/01/26 00:04:38;;;;;;;1.30;1.20;;;;;;;-145.69;68.67;52329.53;5135346;27;20204;-80
2024/01/26 00:07:05;;;;;;;1.10;1.00;;;;;;;-145.69;69.04;52313.69;5135189;27;20201;-80
2024/01/26 00:09:32;;;;;;;1.50;1.13;;;;;;;-145.69;68.63;52303.78;5134979;27;20218;-80
2024/01/26 00:11:59;;;;;;;2.20;1.30;;;;;;;-145.69;68.56;52299.81;5134862;27;20205;-80
2024/01/26 00:14:25;;;;;;;1.30;1.20;;;;;;;-145.69;68.92;52329.53;5135122;27;20224;-80
2024/01/26 00:16:52;;;;;;;2.03;1.40;;;;;;;-145.69;68.20;52329.53;5134690;27;20185;-80
2024/01/26 00:19:18;;;;;;;1.80;1.30;;;;;;;-145.69;68.57;52327.53;5134712;27;20765;-80
2024/01/26 00:21:46;;;;;;;1.37;1.27;;;;;;;-145.69;68.42;52317.66;5134645;27;20239;-79
2024/01/26 00:24:13;;;;;;;1.20;1.10;;;;;;;-145.69;68.54;52349.31;5134951;27;20555;-80
2024/01/26 00:26:40;;;;;;;1.50;1.30;;;;;;;-145.69;68.76;52313.69;5134800;27;20250;-80
2024/01/26 00:29:06;;;;;;;3.43;1.30;;;;;;;-145.69;69.16;52317.66;5134869;27;20205;-80
2024/01/26 00:31:33;;;;;;;1.63;1.40;;;;;;;-145.69;69.03;52317.66;5134861;27;20284;-80
2024/01/26 00:33:59;;;;;;;1.97;1.30;;;;;;;-145.69;68.64;52305.75;5133094;27;20229;-80
2024/01/26 00:36:26;;;;;;;1.13;1.03;;;;;;;-145.69;68.59;52285.97;5130058;27;20204;-80
2024/01/26 00:38:54;;;;;;;1.60;1.30;;;;;;;-145.69;69.10;52272.09;5134605;27;20227;-80
2024/01/26 00:41:20;;;;;;;1.47;1.30;;;;;;;-145.69;68.79;52331.50;5134403;27;20197;-80
2024/01/26 00:43:47;;;;;;;1.47;1.00;;;;;;;-145.69;68.31;52341.41;5134651;27;20203;-80
2024/01/26 00:46:13;;;;;;;1.50;0.90;;;;;;;-145.69;68.45;52285.97;5134111;27;20196;-80
2024/01/26 00:48:40;;;;;;;1.20;0.90;;;;;;;-145.69;68.59;52337.44;5134166;27;20715;-80
2024/01/26 00:51:06;;;;;;;1.77;1.07;;;;;;;-145.69;67.49;52297.84;5134112;27;20209;-80
2024/01/26 00:53:33;;;;;;;1.20;0.90;;;;;;;-145.69;67.60;52309.72;5134372;27;20193;-79
2024/01/26 00:56:01;;;;;;;1.73;1.10;;;;;;;-145.69;67.45;52264.16;5134458;27;20211;-79
2024/01/26 00:58:27;;;;;;;2.20;0.83;;;;;;;-145.69;67.72;52313.69;5133449;27;20193;-79
2024/01/26 01:00:54;;;;;;;2.93;1.23;;;;;;;-145.69;67.60;52333.47;5134007;27;20196;-80
2024/01/26 01:03:20;;;;;;;1.10;1.00;;;;;;;-145.69;67.48;52307.75;5134252;27;20208;-80
2024/01/26 01:05:47;;;;;;;0.93;0.83;;;;;;;-145.69;67.79;52293.88;5133922;27;20197;-80
2024/01/26 01:08:13;;;;;;;1.20;1.00;;;;;;;-145.69;67.20;52321.59;5134069;27;20203;-80
2024/01/26 01:10:40;;;;;;;2.23;0.90;;;;;;;-145.69;66.48;52339.44;5133722;27;20531;-80
2024/01/26 01:13:10;;;;;;;1.10;0.80;;;;;;;-145.69;67.02;52313.69;5133734;27;20192;-79
2024/01/26 01:15:37;;;;;;;3.07;1.03;;;;;;;-145.69;66.66;52313.69;5132856;27;20224;-80
2024/01/26 01:18:05;;;;;;;1.23;0.93;;;;;;;-145.69;66.75;52301.81;5133078;27;20279;-80
2024/01/26 01:20:31;;;;;;;2.23;0.70;;;;;;;-145.69;66.11;52321.59;5133998;27;20192;-80
2024/01/26 01:22:59;;;;;;;1.03;0.80;;;;;;;-145.69;67.40;52325.56;5133765;27;20207;-80
2024/01/26 01:25:26;;;;;;;0.73;0.70;;;;;;;-145.69;67.63;52309.72;5134068;27;20293;-80
2024/01/26 01:27:52;;;;;;;0.77;0.77;;;;;;;-145.69;67.82;52305.75;5133111;27;20189;-80
2024/01/26 01:30:20;;;;;;;0.87;0.77;;;;;;;-145.69;67.74;52303.78;5133764;27;20303;-80
2024/01/26 01:32:47;;;;;;;1.17;0.90;;;;;;;-145.69;67.59;52305.75;5133522;27;20650;-80
2024/01/26 01:35:13;;;;;;;1.03;0.83;;;;;;;-145.69;67.80;52305.75;5132709;27;20247;-80
2024/01/26 01:37:40;;;;;;;1.33;0.90;;;;;;;-145.69;68.01;52282.00;5132951;27;20197;-80
2024/01/26 01:40:10;;;;;;;0.97;0.70;;;;;;;-145.69;68.18;52303.78;5133513;27;20551;-80
2024/01/26 01:42:37;;;;;;;0.80;0.80;;;;;;;-145.69;67.39;52299.81;5132670;27;20196;-80
2024/01/26 01:45:12;;;;;;;0.90;0.70;;;;;;;-145.69;67.10;52315.66;5133399;27;20207;-80
2024/01/26 01:47:40;;;;;;;0.80;0.80;;;;;;;-145.69;67.45;52280.00;5133148;27;20593;-79
2024/01/26 01:50:08;;;;;;;0.70;0.70;;;;;;;-145.69;67.52;52325.56;5132996;27;20232;-82
2024/01/26 01:52:37;;;;;;;1.20;0.90;;;;;;;-145.69;67.35;52297.84;5133446;28;20291;-80
2024/01/26 01:55:08;;;;;;;1.10;0.80;;;;;;;-145.69;67.38;52285.97;5133028;27;20231;-80
2024/01/26 01:57:38;;;;;;;0.70;0.70;;;;;;;-145.69;68.17;52329.53;5133567;27;20203;-80
2024/01/26 02:00:06;;;;;;;2.43;1.00;;;;;;;-145.69;67.90;52339.44;5133199;27;20224;-80
2024/01/26 02:02:32;;;;;;;1.00;0.90;;;;;;;-145.69;67.68;52353.28;5133375;28;20212;-80
2024/01/26 02:05:00;;;;;;;1.27;0.70;;;;;;;-145.69;67.96;52280.00;5133403;28;20242;-80
2024/01/26 02:07:27;;;;;;;0.70;0.70;;;;;;;-145.69;67.61;52323.59;5133378;28;20201;-80
2024/01/26 02:09:53;;;;;;;1.00;0.90;;;;;;;-145.69;67.83;52321.59;5132699;27;20651;-79
2024/01/26 02:12:20;;;;;;;1.70;0.80;;;;;;;-145.69;67.80;52329.53;5133084;28;20315;-80
2024/01/26 02:14:46;;;;;;;0.97;0.87;;;;;;;-145.69;68.77;52329.53;5133271;27;20228;-80
2024/01/26 02:17:14;;;;;;;0.60;0.60;;;;;;;-145.69;68.60;52321.59;5132906;27;20192;-80
2024/01/26 02:19:40;;;;;;;2.20;0.77;;;;;;;-145.69;68.77;52341.41;5133345;27;20287;-80
2024/01/26 02:22:08;;;;;;;0.60;0.60;;;;;;;-145.69;69.29;52303.78;5132683;27;20193;-79
2024/01/26 02:24:36;;;;;;;1.33;0.60;;;;;;;-145.69;69.09;52309.72;5133070;27;20798;-80
2024/01/26 02:27:03;;;;;;;0.57;0.57;;;;;;;-145.69;68.92;52305.75;5132910;28;20197;-79
2024/01/26 02:29:29;;;;;;;0.73;0.67;;;;;;;-145.69;69.49;52361.22;5132946;27;20197;-82
2024/01/26 02:31:55;;;;;;;0.60;0.60;;;;;;;-145.69;68.96;52337.44;5133058;27;20204;-80
2024/01/26 02:34:22;;;;;;;1.00;0.90;;;;;;;-145.69;69.16;52333.47;5132883;27;20197;-80
2024/01/26 02:36:49;;;;;;;1.80;0.80;;;;;;;-145.69;68.72;52345.38;5133019;28;20205;-80
2024/01/26 02:39:15;;;;;;;0.67;0.67;;;;;;;-145.69;69.19;52339.44;5133049;28;20208;-79
2024/01/26 02:41:43;;;;;;;1.00;0.70;;;;;;;-145.69;69.35;52329.53;5132568;27;20196;-80
2024/01/26 02:44:09;;;;;;;1.47;0.70;;;;;;;-145.69;68.67;52365.16;5131056;27;20551;-80
2024/01/26 02:46:36;;;;;;;0.60;0.60;;;;;;;-145.69;68.92;52349.31;5113647;28;20201;-79
2024/01/26 02:49:03;;;;;;;0.80;0.80;;;;;;;-145.69;68.64;52297.84;5111764;28;20707;-79
2024/01/26 02:51:29;;;;;;;0.83;0.70;;;;;;;-145.69;68.64;52357.25;5112235;28;20198;-79
2024/01/26 02:53:56;;;;;;;0.70;0.70;;;;;;;-145.69;68.99;52339.44;5119613;27;20189;-80
2024/01/26 02:56:22;;;;;;;0.63;0.63;;;;;;;-145.69;69.12;52317.66;5132851;27;20225;-79
2024/01/26 02:58:50;;;;;;;0.50;0.50;;;;;;;-145.69;69.10;52329.53;5136292;27;20197;-80
2024/01/26 03:01:16;;;;;;;0.57;0.57;;;;;;;-145.69;69.71;52307.75;5136545;27;20658;-80
2024/01/26 03:03:43;;;;;;;0.53;0.53;;;;;;;-145.69;69.16;52307.75;5135858;27;20197;-80
2024/01/26 03:06:11;;;;;;;0.70;0.70;;;;;;;-145.69;69.69;52283.97;5136062;27;20204;-80
2024/01/26 03:08:38;;;;;;;1.20;0.90;;;;;;;-145.69;68.97;52305.75;5136289;27;20737;-81
2024/01/26 03:11:04;;;;;;;0.73;0.73;;;;;;;-145.69;69.61;52331.50;5135217;27;20201;-81
2024/01/26 03:13:31;;;;;;;0.70;0.70;;;;;;;-145.69;69.72;52351.31;5136249;27;20551;-81
2024/01/26 03:15:59;;;;;;;0.77;0.77;;;;;;;-145.69;69.58;52291.91;5136204;27;20701;-81
2024/01/26 03:18:25;;;;;;;1.90;0.70;;;;;;;-145.69;69.29;52355.28;5136275;27;20201;-81
2024/01/26 03:20:52;;;;;;;1.23;0.70;;;;;;;-145.69;69.21;52299.81;5135988;27;20192;-81
2024/01/26 03:23:18;;;;;;;3.70;1.83;;;;;;;-145.69;69.17;52301.81;5135784;27;20196;-80
2024/01/26 03:25:45;;;;;;;0.60;0.60;;;;;;;-145.69;69.29;52337.44;5135952;27;20220;-81
2024/01/26 03:28:11;;;;;;;1.87;0.80;;;;;;;-145.69;69.56;52353.28;5136159;27;20223;-81
2024/01/26 03:30:40;;;;;;;0.60;0.50;;;;;;;-145.69;69.69;52333.47;5135246;27;20204;-80
2024/01/26 03:33:08;;;;;;;1.60;0.93;;;;;;;-145.69;69.23;52359.22;5136028;27;20324;-80
2024/01/26 03:35:34;;;;;;;0.80;0.73;;;;;;;-145.69;69.64;52305.75;5135773;27;20225;-81
2024/01/26 03:38:01;;;;;;;0.70;0.70;;;;;;;-145.69;69.83;52335.47;5135964;27;20205;-81
2024/01/26 03:40:28;;;;;;;0.70;0.60;;;;;;;-145.69;69.81;52329.53;5135163;27;20197;-81
2024/01/26 03:42:55;;;;;;;1.33;0.70;;;;;;;-145.69;69.38;52341.41;5135607;27;20200;-81
2024/01/26 03:45:21;;;;;;;0.80;0.80;;;;;;;-145.69;69.20;52293.88;5135765;27;20283;-81
2024/01/26 03:47:48;;;;;;;0.70;0.70;;;;;;;-145.69;69.11;52365.16;5135405;27;20616;-81
2024/01/26 03:50:18;;;;;;;0.60;0.60;;;;;;;-145.69;68.76;52341.41;5135555;27;20636;-81
2024/01/26 03:52:45;;;;;;;0.67;0.67;;;;;;;-145.69;68.94;52325.56;5135366;27;20712;-81
2024/01/26 03:55:12;;;;;;;0.90;0.70;;;;;;;-145.69;68.37;52325.56;5135291;27;20226;-81
2024/01/26 03:57:38;;;;;;;0.63;0.60;;;;;;;-145.69;68.95;52335.47;5135307;27;20205;-81
2024/01/26 04:00:06;;;;;;;1.03;0.90;;;;;;;-145.69;68.96;52337.44;5135278;27;20224;-81
2024/01/26 04:02:32;;;;;;;1.10;1.00;;;;;;;-145.69;68.46;52339.44;5134938;27;20228;-81
2024/01/26 04:04:59;;;;;;;1.50;1.00;;;;;;;-145.69;69.04;52327.53;5135122;27;20199;-81
2024/01/26 04:07:27;;;;;;;3.03;0.90;;;;;;;-145.69;68.59;52309.72;5135406;27;20284;-81
2024/01/26 04:09:53;;;;;;;1.83;1.03;;;;;;;-145.69;68.81;52329.53;5134675;27;20196;-81
2024/01/26 04:12:20;;;;;;;1.10;1.00;;;;;;;-145.69;68.25;52319.63;5135215;27;20208;-81
2024/01/26 04:14:46;;;;;;;2.03;1.00;;;;;;;-145.69;67.99;52323.59;5134362;27;20196;-80
2024/01/26 04:17:13;;;;;;;2.60;0.83;;;;;;;-145.69;68.13;52309.72;5134752;27;20322;-82
2024/01/26 04:19:39;;;;;;;2.37;0.93;;;;;;;-145.69;68.05;52345.38;5135096;27;20208;-81
2024/01/26 04:22:06;;;;;;;1.73;1.13;;;;;;;-145.69;68.25;52361.22;5134842;27;20203;-81
2024/01/26 04:24:35;;;;;;;2.07;1.10;;;;;;;-145.69;67.70;52305.75;5134823;27;20195;-81
2024/01/26 04:27:01;;;;;;;2.20;1.07;;;;;;;-145.69;67.46;52319.63;5134009;27;20207;-81
2024/01/26 04:29:28;;;;;;;1.33;1.00;;;;;;;-145.69;67.74;52329.53;5134826;27;20197;-80
2024/01/26 04:31:55;;;;;;;0.97;0.97;;;;;;;-145.69;68.40;52337.44;5134828;27;20232;-81
2024/01/26 04:34:21;;;;;;;1.10;0.90;;;;;;;-145.69;68.02;52309.72;5134536;27;20201;-81
2024/01/26 04:36:47;;;;;;;1.73;1.10;;;;;;;-145.69;67.84;52278.03;5134084;27;20224;-81
2024/01/26 04:39:14;;;;;;;1.97;1.10;;;;;;;-145.69;68.09;52349.31;5133924;27;20595;-80
2024/01/26 04:41:43;;;;;;;1.13;1.03;;;;;;;-145.69;68.40;52331.50;5134221;27;20273;-81
2024/01/26 04:44:09;;;;;;;0.70;0.70;;;;;;;-145.69;68.18;52325.56;5134521;27;20205;-80
2024/01/26 04:46:36;;;;;;;1.67;0.93;;;;;;;-145.69;68.61;52321.59;5134231;27;20596;-80
2024/01/26 04:49:03;;;;;;;0.80;0.80;;;;;;;-145.69;68.07;52289.91;5133959;27;20217;-80
2024/01/26 04:51:30;;;;;;;1.33;1.10;;;;;;;-145.69;68.12;52325.56;5118168;27;20201;-80
2024/01/26 04:53:56;;;;;;;1.90;0.70;;;;;;;-145.69;68.26;52327.53;5113696;28;20204;-81
2024/01/26 04:56:23;;;;;;;4.27;1.20;;;;;;;-145.69;68.29;52327.53;5129648;27;20708;-80
2024/01/26 04:58:50;;;;;;;3.30;0.90;;;;;;;-145.69;67.80;52297.84;5134130;27;20216;-80
2024/01/26 05:01:17;;;;;;;2.17;1.00;;;;;;;-145.69;67.55;52329.53;5133972;27;20207;-79
2024/01/26 05:03:43;;;;;;;1.23;0.73;;;;;;;-145.69;67.72;52349.31;5134142;27;20203;-80
2024/01/26 05:06:10;;;;;;;1.13;0.80;;;;;;;-145.69;67.50;52329.53;5134057;27;20544;-80
2024/01/26 05:08:38;;;;;;;1.27;0.90;;;;;;;-145.69;67.56;52321.59;5134176;27;20196;-80
2024/01/26 05:11:05;;;;;;;1.90;1.00;;;;;;;-145.69;67.76;52295.84;5133514;27;20192;-80
2024/01/26 05:13:31;;;;;;;1.50;0.93;;;;;;;-145.69;67.08;52307.75;5133185;27;20548;-80
2024/01/26 05:15:59;;;;;;;2.13;0.97;;;;;;;-145.69;67.65;52309.72;5133614;27;20220;-80
2024/01/26 05:18:27;;;;;;;1.07;0.97;;;;;;;-145.69;66.90;52329.53;5133685;27;20559;-81
2024/01/26 05:20:53;;;;;;;1.90;1.00;;;;;;;-145.69;67.02;52313.69;5133757;27;20237;-80
2024/01/26 05:23:20;;;;;;;1.43;1.10;;;;;;;-145.69;67.08;52315.66;5133872;27;20210;-80
2024/01/26 05:25:47;;;;;;;1.00;0.90;;;;;;;-145.69;66.99;52309.72;5133398;27;20197;-80
2024/01/26 05:28:14;;;;;;;1.33;0.90;;;;;;;-145.69;66.88;52321.59;5134002;27;20201;-80
2024/01/26 05:30:41;;;;;;;0.87;0.80;;;;;;;-145.69;66.63;52305.75;5133568;27;20201;-80
2024/01/26 05:33:09;;;;;;;1.47;0.80;;;;;;;-145.69;65.72;52333.47;5133584;27;20674;-80
2024/01/26 05:35:35;;;;;;;0.83;0.70;;;;;;;-145.69;65.71;52297.84;5133357;27;20221;-80
2024/01/26 05:38:01;;;;;;;3.60;0.87;;;;;;;-145.69;65.80;52309.72;5133102;27;20291;-80
2024/01/26 05:40:28;;;;;;;1.43;0.80;;;;;;;-145.69;65.71;52305.75;5132959;27;20199;-81
2024/01/26 05:42:54;;;;;;;0.60;0.60;;;;;;;-145.69;65.77;52311.69;5132634;27;20560;-80
2024/01/26 05:45:21;;;;;;;1.00;0.90;;;;;;;-145.69;65.58;52329.53;5133514;27;20569;-80
2024/01/26 05:47:48;;;;;;;1.00;0.90;;;;;;;-145.69;65.42;52315.66;5133433;27;20551;-80
2024/01/26 05:50:17;;;;;;;1.03;0.80;;;;;;;-145.69;64.95;52311.69;5132759;27;20228;-80
2024/01/26 05:52:43;;;;;;;1.43;0.80;;;;;;;-145.69;65.58;52315.66;5133286;27;20233;-80
2024/01/26 05:55:10;;;;;;;1.57;0.70;;;;;;;-145.69;65.64;52349.31;5133687;27;20555;-80
2024/01/26 05:57:36;;;;;;;1.20;1.10;;;;;;;-145.69;65.26;52301.81;5133661;27;20224;-80
2024/01/26 06:00:04;;;;;;;2.00;1.00;;;;;;;-145.69;65.60;52347.34;5133379;27;20211;-80
2024/01/26 06:02:30;;;;;;;0.80;0.70;;;;;;;-145.69;65.36;52299.81;5132980;27;20216;-80
2024/01/26 06:04:57;;;;;;;0.97;0.90;;;;;;;-145.69;64.33;52305.75;5133426;28;20650;-80
2024/01/26 06:07:24;;;;;;;1.93;0.97;;;;;;;-145.69;64.29;52305.75;5133149;27;20856;-80
2024/01/26 06:09:51;;;;;;;1.00;0.73;;;;;;;-145.69;64.32;52333.47;5132636;27;20224;-80
2024/01/26 06:12:17;;;;;;;1.10;1.00;;;;;;;-145.69;63.76;52301.81;5132701;28;20200;-80
2024/01/26 06:14:44;;;;;;;0.90;0.90;;;;;;;-145.69;63.87;52313.69;5132795;27;20709;-80
2024/01/26 06:17:10;;;;;;;1.67;1.13;;;;;;;-145.69;63.94;52331.50;5132807;27;20227;-80
2024/01/26 06:19:37;;;;;;;1.47;1.10;;;;;;;-145.69;63.60;52301.81;5133109;28;20207;-80
2024/01/26 06:22:04;;;;;;;2.97;1.43;;;;;;;-145.69;62.95;52307.75;5132931;27;20228;-80
2024/01/26 06:24:32;;;;;;;6.27;2.83;;;;;;;-145.69;62.94;52264.16;5133346;28;20197;-81
2024/01/26 06:26:58;;;;;;;12.33;5.33;;;;;;;-145.69;62.86;52270.13;5132819;27;20655;-80
2024/01/26 06:29:27;;;;;;;5.53;2.63;;;;;;;-145.69;62.48;52305.75;5131575;28;20216;-80
2024/01/26 06:31:54;;;;;;;3.87;1.80;;;;;;;-145.69;62.62;52285.97;5133597;27;20200;-80
2024/01/26 06:34:20;;;;;;;5.20;2.17;;;;;;;-145.69;62.25;52276.06;5137052;27;20203;-80
2024/01/26 06:36:47;;;;;;;8.20;3.13;;;;;;;-145.69;62.91;52285.97;5136474;27;20707;-80
2024/01/26 06:39:13;;;;;;;4.97;2.33;;;;;;;-145.69;62.48;52307.75;5137012;27;20200;-80
2024/01/26 06:41:43;;;;;;;2.40;1.73;;;;;;;-145.69;62.69;52270.13;5137002;27;20208;-80
2024/01/26 06:44:10;;;;;;;3.03;1.40;;;;;;;-145.69;61.99;52351.31;5136703;27;20653;-81
2024/01/26 06:46:36;;;;;;;1.57;1.30;;;;;;;-145.69;62.00;52333.47;5136039;27;20208;-80
2024/01/26 06:49:03;;;;;;;6.47;2.93;;;;;;;-145.69;61.93;52307.75;5136271;27;20263;-80
2024/01/26 06:51:29;;;;;;;3.87;1.40;;;;;;;-145.69;61.74;52333.47;5137114;27;20423;-81
2024/01/26 06:53:56;;;;;;;5.67;2.27;;;;;;;-145.69;61.51;52301.81;5128055;27;20277;-81
2024/01/26 06:56:23;;;;;;;1.83;1.50;;;;;;;-145.69;61.49;52291.91;5116144;27;20775;-80
2024/01/26 06:58:52;;;;;;;3.57;1.33;;;;;;;-145.69;60.94;52307.75;5117512;27;20197;-80
2024/01/26 07:01:18;;;;;;;3.20;1.77;;;;;;;-145.69;61.26;52282.00;5136130;27;20218;-80
2024/01/26 07:03:45;;;;;;;10.27;3.90;;;;;;;-145.69;61.44;52309.72;5136138;27;20199;-80
2024/01/26 07:06:11;;;;;;;4.63;2.00;;;;;;;-145.69;61.09;52303.78;5136514;27;20197;-78
2024/01/26 07:08:38;;;;;;;2.33;1.40;;;;;;;-145.69;60.47;52299.81;5136091;27;20546;-80
2024/01/26 07:11:04;;;;;;;1.92;1.20;;;;;;;-145.69;60.44;52282.00;5136393;27;20207;-80
2024/01/26 07:13:31;;;;;;;0.80;0.80;;;;;;;-145.69;59.94;52301.81;5136202;27;20631;-80
2024/01/26 07:15:59;;;;;;;1.67;1.00;;;;;;;-145.69;59.96;52317.66;5135712;27;20616;-80
2024/01/26 07:18:25;;;;;;;0.97;0.90;;;;;;;-145.69;59.44;52285.97;5136258;27;20213;-80
2024/01/26 07:20:52;;;;;;;1.13;0.80;;;;;;;-145.69;59.48;52289.91;5136304;27;20232;-80
2024/01/26 07:23:18;;;;;;;1.10;1.00;;;;;;;-145.69;58.98;52274.06;5135970;27;20288;-80
2024/01/26 07:25:45;;;;;;;0.88;0.88;;;;;;;-145.69;59.01;52274.06;5135707;27;20193;-80
2024/01/26 07:28:11;;;;;;;1.63;0.97;;;;;;;-145.69;59.46;52270.13;5136188;27;20669;-79
2024/01/26 07:30:38;;;;;;;2.35;0.75;;;;;;;-145.69;59.39;52282.00;5134925;27;20197;-80
2024/01/26 07:33:07;;;;;;;1.88;0.80;;;;;;;-145.69;59.16;52321.59;5135542;27;20196;-79
2024/01/26 07:35:33;;;;;;;2.27;1.13;;;;;;;-145.69;58.97;52297.84;5135897;27;20671;-79
2024/01/26 07:38:00;;;;;;;1.20;1.00;;;;;;;-145.69;58.78;52287.94;5135779;27;20224;-82
2024/01/26 07:40:27;;;;;;;1.52;1.15;;;;;;;-145.69;59.10;52278.03;5135807;27;20201;-80
2024/01/26 07:42:53;;;;;;;2.13;1.13;;;;;;;-145.69;58.91;52289.91;5134821;27;20634;-79
2024/01/26 07:45:20;;;;;;;1.65;1.20;;;;;;;-145.69;58.18;52307.75;5135920;27;20225;-80
2024/01/26 07:47:46;;;;;;;2.13;1.70;;;;;;;-145.69;57.96;52293.88;5135551;27;20203;-81
2024/01/26 07:50:14;;;;;;;2.75;1.52;;;;;;;-145.69;56.95;52230.50;5135065;27;20224;-79
2024/01/26 07:52:41;;;;;;;1.92;1.20;;;;;;;-145.69;56.95;52276.06;5135585;27;20196;-80
2024/01/26 07:55:09;;;;;;;2.50;1.25;;;;;;;-145.69;56.70;52266.16;5135512;27;20586;-80
2024/01/26 07:57:36;;;;;;;2.72;1.30;;;;;;;-145.69;56.92;52278.03;5135018;27;20224;-79
2024/01/26 08:00:03;;;;;;;1.70;1.02;;;;;;;-145.69;56.24;52256.25;5135107;27;20227;-80
2024/01/26 08:02:30;;;;;;;2.47;1.10;;;;;;;-145.69;57.15;52270.13;5134978;27;20283;-79
2024/01/26 08:04:57;;;;;;;5.03;1.10;;;;;;;-145.69;56.92;52268.13;5135049;27;20193;-79
2024/01/26 08:07:24;;;;;;;1.05;0.75;;;;;;;-145.69;56.73;52278.03;5134998;27;20205;-80
2024/01/26 08:09:51;;;;;;;4.05;1.33;;;;;;;-145.69;56.99;52278.03;5135397;27;20204;-81
2024/01/26 08:12:17;;;;;;;2.85;1.50;;;;;;;-145.69;56.50;52282.00;5134890;27;20219;-82
2024/01/26 08:14:44;;;;;;;4.05;1.30;;;;;;;-145.69;56.50;52282.00;5134613;27;20197;-81
2024/01/26 08:17:12;;;;;;;1.70;1.40;;;;;;;-145.69;56.27;52262.19;5134977;27;20227;-81
2024/01/26 08:19:39;;;;;;;1.98;1.35;;;;;;;-145.69;56.69;52278.03;5135067;27;20197;-81
2024/01/26 08:22:05;;;;;;;2.60;1.35;;;;;;;-145.69;56.50;52282.00;5135038;27;20193;-81
2024/01/26 08:24:33;;;;;;;2.60;1.33;;;;;;;-145.69;56.16;52276.06;5134869;27;20205;-81
2024/01/26 08:27:01;;;;;;;1.73;1.20;;;;;;;-145.69;56.22;52244.38;5134610;27;20548;-81
2024/01/26 08:29:31;;;;;;;2.20;1.17;;;;;;;-145.69;56.02;52282.00;5134621;27;20695;-80
2024/01/26 08:31:58;;;;;;;2.22;1.30;;;;;;;-145.69;55.91;52238.44;5134643;27;20664;-80
2024/01/26 08:34:25;;;;;;;3.70;1.52;;;;;;;-145.69;55.48;52242.38;5134125;27;20208;-80
2024/01/26 08:36:51;;;;;;;1.75;1.20;;;;;;;-145.69;56.08;52260.22;5134750;27;20273;-80
2024/01/26 08:39:22;;;;;;;3.15;1.30;;;;;;;-145.69;55.56;52244.38;5134507;27;20211;-81
2024/01/26 08:41:52;;;;;;;6.68;1.23;;;;;;;-145.69;55.40;52270.13;5134600;27;20230;-80
2024/01/26 08:44:18;;;;;;;2.53;1.30;;;;;;;-145.69;55.87;52270.13;5134036;27;20205;-81
2024/01/26 08:46:47;;;;;;;1.38;1.20;;;;;;;-145.69;55.59;52244.38;5132210;27;20279;-80
2024/01/26 08:49:13;;;;;;;3.38;1.30;;;;;;;-145.69;55.09;52230.50;5133630;27;20626;-80
2024/01/26 08:51:40;;;;;;;1.75;1.00;;;;;;;-145.69;55.51;52224.56;5134144;27;20200;-81
2024/01/26 08:54:07;;;;;;;3.50;1.35;;;;;;;-145.69;55.34;52236.44;5134769;27;20196;-81
2024/01/26 08:56:34;;;;;;;2.05;1.30;;;;;;;-145.69;55.72;52246.34;5134051;27;20224;-81
2024/01/26 08:59:02;;;;;;;3.92;1.98;;;;;;;-145.69;55.50;52268.13;5130828;27;20292;-81
2024/01/26 09:01:29;;;;;;;4.22;1.30;;;;;;;-145.69;55.07;52270.13;5134709;27;20209;-81
2024/01/26 09:03:57;;;;;;;1.40;1.10;;;;;;;-145.69;55.09;52250.31;5134096;27;20283;-81
2024/01/26 09:06:23;;;;;;;2.08;1.30;;;;;;;-145.69;54.94;52276.06;5133919;27;20201;-81
2024/01/26 09:08:50;;;;;;;3.00;1.17;;;;;;;-145.69;54.67;52238.44;5134763;27;20197;-81
2024/01/26 09:11:17;;;;;;;4.05;1.25;;;;;;;-145.69;54.23;52285.97;5134260;27;20273;-81
2024/01/26 09:13:43;;;;;;;2.92;1.20;;;;;;;-145.69;53.81;52240.41;5134006;27;20197;-82
2024/01/26 09:16:12;;;;;;;1.42;0.88;;;;;;;-145.69;53.06;52214.66;5134897;27;20193;-81
2024/01/26 09:18:38;;;;;;;3.15;1.50;;;;;;;-145.69;52.89;52226.53;5134377;27;20219;-82
2024/01/26 09:21:05;;;;;;;1.52;1.00;;;;;;;-145.69;52.33;52232.50;5134606;27;20801;-82
2024/01/26 09:23:32;;;;;;;1.80;1.00;;;;;;;-145.69;52.22;52240.41;5134496;27;20593;-83
2024/01/26 09:26:00;;;;;;;2.75;0.90;;;;;;;-145.69;53.05;52246.34;5135117;27;20197;-83
2024/01/26 09:28:26;;;;;;;2.20;1.10;;;;;;;-145.69;53.22;52289.91;5133637;27;20197;-81
2024/01/26 09:30:53;;;;;;;1.98;1.20;;;;;;;-145.69;53.93;52285.97;5133695;27;20203;-81
2024/01/26 09:33:21;;;;;;;2.58;1.00;;;;;;;-145.69;53.75;52238.44;5130494;27;20204;-82
2024/01/26 09:35:48;;;;;;;2.45;1.10;;;;;;;-145.69;54.00;52246.34;5133583;27;20204;-81
2024/01/26 09:38:14;;;;;;;1.52;0.75;;;;;;;-145.69;54.42;52254.28;5132919;27;20312;-82
2024/01/26 09:40:43;;;;;;;1.00;0.80;;;;;;;-145.69;53.88;52242.38;5133648;27;20200;-82
2024/01/26 09:43:10;;;;;;;1.65;1.40;;;;;;;-145.69;53.62;52252.28;5133488;27;20654;-80
2024/01/26 09:45:37;;;;;;;1.20;0.93;;;;;;;-145.69;53.42;52264.16;5133490;27;20204;-81
2024/01/26 09:48:06;;;;;;;1.08;0.73;;;;;;;-145.69;53.49;52268.13;5133035;27;20650;-81
2024/01/26 09:50:34;;;;;;;5.40;0.90;;;;;;;-145.69;53.58;52266.16;5132213;27;20224;-81
2024/01/26 09:53:00;;;;;;;1.98;1.05;;;;;;;-145.69;53.35;52238.44;5133589;27;20217;-81
2024/01/26 09:55:27;;;;;;;4.35;1.10;;;;;;;-145.69;52.81;52293.88;5133285;28;20200;-81
2024/01/26 09:57:54;;;;;;;3.42;0.85;;;;;;;-145.69;52.95;52270.13;5132877;28;20228;-80
2024/01/26 10:00:21;;;;;;;1.08;0.80;;;;;;;-145.69;52.47;52250.31;5133097;28;20188;-81
2024/01/26 10:02:47;;;;;;;1.58;1.00;;;;;;;-145.69;52.46;52250.31;5132676;27;20200;-81
2024/01/26 10:05:17;;;;;;;0.90;0.90;;;;;;;-145.69;52.38;52194.88;5133385;28;20204;-81
2024/01/26 10:07:45;;;;;;;1.58;1.00;;;;;;;-145.69;52.15;52248.34;5136677;27;20196;-81
2024/01/26 10:10:12;;;;;;;1.13;0.88;;;;;;;-145.69;52.74;52230.50;5137248;27;20283;-81
2024/01/26 10:12:39;;;;;;;1.05;0.90;;;;;;;-145.69;51.76;52206.75;5137155;27;20203;-80
2024/01/26 10:15:07;;;;;;;2.45;1.13;;;;;;;-145.69;51.81;52234.47;5137167;27;20208;-81
2024/01/26 10:17:34;;;;;;;3.75;1.13;;;;;;;-145.69;52.11;52226.53;5136799;27;20231;-81
2024/01/26 10:20:13;;;;;;;8.80;2.58;;;;;;;-145.69;52.04;52250.31;5137237;27;20193;-81
2024/01/26 10:22:40;;;;;;;2.67;1.30;;;;;;;-145.69;51.20;52238.44;5137520;27;20201;-81
2024/01/26 10:25:08;;;;;;;2.00;1.00;;;;;;;-145.69;51.17;52244.38;5137211;27;20647;-81
2024/01/26 10:27:35;;;;;;;1.40;0.80;;;;;;;-145.69;51.55;52222.59;5137032;27;20211;-80
2024/01/26 10:30:02;;;;;;;1.45;1.08;;;;;;;-145.69;51.64;52218.63;5137444;27;20196;-81
2024/01/26 10:32:30;;;;;;;1.27;1.10;;;;;;;-145.69;51.61;52258.22;5137054;27;20204;-81
2024/01/26 10:34:57;;;;;;;2.67;1.02;;;;;;;-145.69;52.02;52278.03;5136973;27;20205;-80
2024/01/26 10:37:28;;;;;;;2.83;1.00;;;;;;;-145.69;51.93;52210.72;5137044;27;20739;-80
2024/01/26 10:39:56;;;;;;;1.52;1.15;;;;;;;-145.69;52.42;52230.50;5136778;27;20189;-82
2024/01/26 10:42:24;;;;;;;3.70;1.20;;;;;;;-145.69;52.05;52260.22;5136778;27;20243;-80
2024/01/26 10:44:53;;;;;;;0.95;0.90;;;;;;;-145.69;51.96;52244.38;5136816;27;20197;-80
2024/01/26 10:47:20;;;;;;;0.80;0.80;;;;;;;-145.69;52.46;52208.72;5136416;27;20226;-81
2024/01/26 10:49:48;;;;;;;2.75;1.58;;;;;;;-145.69;52.75;52246.34;5136068;27;20420;-80
2024/01/26 10:52:17;;;;;;;0.93;0.93;;;;;;;-145.69;53.05;52236.44;5136278;27;20200;-80
2024/01/26 10:54:45;;;;;;;2.55;1.40;;;;;;;-145.69;52.84;52204.75;5134542;27;20269;-81
2024/01/26 10:57:12;;;;;;;2.80;1.27;;;;;;;-145.69;53.19;52236.44;5135920;27;20220;-81
2024/01/26 10:59:41;;;;;;;2.40;1.30;;;;;;;-145.69;52.75;52252.28;5137742;27;20192;-81
2024/01/26 11:02:11;;;;;;;2.28;1.40;;;;;;;-145.69;53.01;52216.66;5136651;27;20200;-81
2024/01/26 11:04:40;;;;;;;3.78;1.90;;;;;;;-145.69;53.02;52240.41;5117920;27;20234;-81
2024/01/26 11:07:08;;;;;;;10.80;2.13;;;;;;;-145.69;53.42;52208.72;5115705;28;20648;-80
2024/01/26 11:09:38;;;;;;;2.88;1.27;;;;;;;-145.69;53.57;52218.63;5121617;27;20197;-81
2024/01/26 11:12:08;;;;;;;5.47;1.20;;;;;;;-145.69;53.80;52226.53;5135991;27;20663;-80
2024/01/26 11:14:35;;;;;;;5.53;1.52;;;;;;;-145.69;53.47;52220.59;5136569;27;20196;-81
2024/01/26 11:17:10;;;;;;;3.42;1.30;;;;;;;-145.69;53.20;52246.34;5136233;27;20208;-80